createdAt,value
2018-12-25T00:01:36.588Z,6.25
2018-12-25T00:04:04.980Z,6.20
2018-12-25T00:06:33.090Z,5.85
2018-12-25T00:09:01.471Z,6.42
2018-12-25T00:11:29.647Z,6.15
2018-12-25T00:13:57.589Z,6.22
2018-12-25T00:16:25.797Z,6.28
2018-12-25T00:18:54.198Z,6.55
2018-12-25T00:21:22.440Z,7.53
2018-12-25T00:23:51.436Z,7.90
2018-12-25T00:26:19.453Z,7.92
2018-12-25T00:28:47.580Z,7.58
2018-12-25T00:31:15.844Z,7.87
2018-12-25T00:33:44.163Z,8.53
2018-12-25T00:36:12.452Z,7.55
2018-12-25T00:38:41.405Z,8.05
2018-12-25T00:41:09.354Z,7.72
2018-12-25T00:43:37.655Z,7.55
2018-12-25T00:46:06.315Z,7.90
2018-12-25T00:48:35.571Z,8.93
2018-12-25T00:51:03.691Z,8.30
2018-12-25T00:53:31.900Z,9.68
2018-12-25T00:55:59.891Z,8.45
2018-12-25T00:58:27.742Z,9.20
2018-12-25T01:00:56.046Z,8.23
2018-12-25T01:03:24.249Z,8.03
2018-12-25T01:05:52.575Z,9.30
2018-12-25T01:08:21.135Z,10.15
2018-12-25T01:10:49.100Z,9.00
2018-12-25T01:13:17.450Z,9.30
2018-12-25T01:15:45.612Z,9.63
2018-12-25T01:18:13.888Z,12.10
2018-12-25T01:20:42.249Z,8.85
2018-12-25T01:23:10.443Z,8.93
2018-12-25T01:25:38.752Z,8.40
2018-12-25T01:28:07.260Z,8.30
2018-12-25T01:30:36.654Z,7.50
2018-12-25T01:33:06.150Z,7.37
2018-12-25T01:35:34.805Z,6.67
2018-12-25T01:38:02.969Z,7.20
2018-12-25T01:40:31.312Z,6.65
2018-12-25T01:42:59.607Z,6.58
2018-12-25T01:45:27.866Z,6.58
2018-12-25T01:47:55.795Z,6.28
2018-12-25T01:50:24.912Z,6.72
2018-12-25T01:52:53.926Z,6.42
2018-12-25T01:55:22.205Z,5.97
2018-12-25T01:57:50.456Z,6.05
2018-12-25T02:00:18.479Z,5.37
2018-12-25T02:02:46.605Z,6.67
2018-12-25T02:05:14.927Z,7.03
2018-12-25T02:07:43.183Z,5.95
2018-12-25T02:10:11.483Z,5.30
2018-12-25T02:12:39.688Z,6.47
2018-12-25T02:15:07.991Z,5.00
2018-12-25T02:17:36.232Z,4.95
2018-12-25T02:20:05.457Z,6.05
2018-12-25T02:22:33.708Z,5.55
2018-12-25T02:25:01.979Z,5.35
2018-12-25T02:27:30.843Z,5.05
2018-12-25T02:29:58.929Z,4.87
2018-12-25T02:32:27.184Z,4.85
2018-12-25T02:34:58.615Z,5.95
2018-12-25T02:37:27.151Z,4.17
2018-12-25T02:39:55.251Z,4.30
2018-12-25T02:42:23.572Z,3.50
2018-12-25T02:44:52.002Z,5.50
2018-12-25T02:47:19.989Z,4.20
2018-12-25T02:49:50.325Z,4.83
2018-12-25T02:52:18.284Z,4.40
2018-12-25T02:54:46.532Z,4.10
2018-12-25T02:57:14.864Z,4.15
2018-12-25T02:59:43.869Z,4.30
2018-12-25T03:02:13.031Z,4.50
2018-12-25T03:04:41.015Z,5.00
2018-12-25T03:07:10.506Z,4.08
2018-12-25T03:09:38.707Z,3.92
2018-12-25T03:12:07.057Z,4.30
2018-12-25T03:14:35.151Z,4.28
2018-12-25T03:17:03.490Z,4.55
2018-12-25T03:19:31.664Z,4.20
2018-12-25T03:21:59.609Z,5.25
2018-12-25T03:24:27.524Z,4.40
2018-12-25T03:26:55.503Z,4.55
2018-12-25T03:29:23.568Z,4.50
2018-12-25T03:31:52.012Z,4.80
2018-12-25T03:34:19.922Z,4.60
2018-12-25T03:36:48.028Z,4.58
2018-12-25T03:39:16.339Z,4.67
2018-12-25T03:41:44.588Z,4.28
2018-12-25T03:44:12.870Z,4.70
2018-12-25T03:46:41.160Z,4.37
2018-12-25T03:49:09.362Z,4.47
2018-12-25T03:51:37.769Z,4.65
2018-12-25T03:54:05.987Z,5.12
2018-12-25T03:56:33.887Z,3.83
2018-12-25T03:59:02.159Z,5.15
2018-12-25T04:01:30.408Z,4.20
2018-12-25T04:03:58.619Z,4.50
2018-12-25T04:06:27.010Z,5.10
2018-12-25T04:08:55.176Z,4.60
2018-12-25T04:11:23.531Z,5.42
2018-12-25T04:13:51.820Z,4.92
2018-12-25T04:16:20.140Z,4.85
2018-12-25T04:18:48.261Z,5.55
2018-12-25T04:21:16.301Z,5.22
2018-12-25T04:23:45.348Z,4.45
2018-12-25T04:26:13.500Z,6.20
2018-12-25T04:28:41.457Z,5.12
2018-12-25T04:31:09.810Z,5.42
2018-12-25T04:33:37.712Z,4.95
2018-12-25T04:36:05.829Z,5.55
2018-12-25T04:38:34.015Z,5.80
2018-12-25T04:41:01.951Z,5.25
2018-12-25T04:43:30.283Z,5.72
2018-12-25T04:45:58.538Z,6.17
2018-12-25T04:48:26.810Z,4.80
2018-12-25T04:50:55.115Z,6.25
2018-12-25T04:53:23.460Z,5.40
2018-12-25T04:55:51.432Z,5.65
2018-12-25T04:58:19.542Z,6.30
2018-12-25T05:00:47.847Z,5.35
2018-12-25T05:03:16.174Z,4.40
2018-12-25T05:05:44.369Z,5.72
2018-12-25T05:08:12.337Z,6.20
2018-12-25T05:10:40.541Z,6.05
2018-12-25T05:13:08.732Z,6.58
2018-12-25T05:15:36.688Z,5.90
2018-12-25T05:18:04.832Z,5.90
2018-12-25T05:20:37.785Z,6.25
2018-12-25T05:23:03.136Z,6.78
2018-12-25T05:25:31.445Z,6.37
2018-12-25T05:27:59.765Z,6.40
2018-12-25T05:30:27.963Z,6.45
2018-12-25T05:32:56.194Z,7.08
2018-12-25T05:35:25.211Z,6.67
2018-12-25T05:37:53.244Z,7.00
2018-12-25T05:40:21.501Z,6.45
2018-12-25T05:42:49.546Z,6.40
2018-12-25T05:45:17.627Z,6.70
2018-12-25T05:47:48.091Z,6.62
2018-12-25T05:50:16.147Z,7.33
2018-12-25T05:52:44.375Z,8.03
2018-12-25T05:55:13.424Z,8.30
2018-12-25T05:57:41.383Z,7.92
2018-12-25T06:00:09.680Z,8.70
2018-12-25T06:02:37.993Z,7.92
2018-12-25T06:05:06.244Z,9.83
2018-12-25T06:07:34.163Z,9.23
2018-12-25T06:10:02.883Z,9.50
2018-12-25T06:12:31.027Z,7.58
2018-12-25T06:15:00.285Z,9.43
2018-12-25T06:17:28.325Z,8.58
2018-12-25T06:19:56.398Z,10.00
2018-12-25T06:22:24.637Z,9.20
2018-12-25T06:24:52.922Z,9.48
2018-12-25T06:27:20.800Z,8.35
2018-12-25T06:29:49.083Z,8.35
2018-12-25T06:32:17.325Z,8.83
2018-12-25T06:34:45.697Z,7.85
2018-12-25T06:37:13.888Z,7.80
2018-12-25T06:39:41.736Z,8.35
2018-12-25T06:42:09.669Z,8.38
2018-12-25T06:44:38.720Z,8.83
2018-12-25T06:47:06.905Z,8.13
2018-12-25T06:49:35.168Z,9.33
2018-12-25T06:52:03.543Z,9.28
2018-12-25T06:54:31.748Z,8.53
2018-12-25T06:57:00.100Z,8.45
2018-12-25T06:59:28.353Z,9.73
2018-12-25T07:01:56.607Z,9.15
2018-12-25T07:04:24.852Z,9.25
2018-12-25T07:06:53.217Z,9.00
2018-12-25T07:09:21.347Z,8.43
2018-12-25T07:11:49.648Z,9.03
2018-12-25T07:14:17.605Z,11.33
2018-12-25T07:16:45.559Z,10.28
2018-12-25T07:19:13.684Z,8.70
2018-12-25T07:21:42.041Z,9.13
2018-12-25T07:24:10.255Z,8.10
2018-12-25T07:26:55.381Z,9.43
2018-12-25T07:29:24.330Z,9.00
2018-12-25T07:31:52.271Z,9.58
2018-12-25T07:34:21.467Z,9.55
2018-12-25T07:36:49.788Z,9.73
2018-12-25T07:39:17.956Z,9.65
2018-12-25T07:41:46.209Z,9.58
2018-12-25T07:44:14.539Z,8.38
2018-12-25T07:46:43.587Z,7.65
2018-12-25T07:49:11.911Z,8.90
2018-12-25T07:51:40.186Z,10.75
2018-12-25T07:54:09.196Z,9.70
2018-12-25T07:56:37.597Z,9.80
2018-12-25T07:59:06.592Z,8.93
2018-12-25T08:01:35.733Z,8.45
2018-12-25T08:04:04.087Z,10.38
2018-12-25T08:06:34.362Z,8.70
2018-12-25T08:09:05.118Z,8.70
2018-12-25T08:11:33.115Z,8.60
2018-12-25T08:14:01.302Z,8.00
2018-12-25T08:16:30.666Z,9.23
2018-12-25T08:18:58.946Z,7.87
2018-12-25T08:21:29.378Z,9.48
2018-12-25T08:23:57.491Z,9.00
2018-12-25T08:26:25.314Z,8.50
2018-12-25T08:28:54.021Z,8.50
2018-12-25T08:31:21.977Z,9.03
2018-12-25T08:33:50.168Z,8.10
2018-12-25T08:36:18.189Z,9.30
2018-12-25T08:38:46.498Z,8.15
2018-12-25T08:41:14.722Z,6.92
2018-12-25T08:43:42.908Z,7.95
2018-12-25T08:46:10.922Z,10.10
2018-12-25T08:48:38.890Z,8.80
2018-12-25T08:51:06.916Z,8.75
2018-12-25T08:53:36.109Z,8.40
2018-12-25T08:56:04.384Z,8.35
2018-12-25T08:58:32.385Z,7.80
2018-12-25T09:01:00.604Z,8.55
2018-12-25T09:03:28.867Z,8.43
2018-12-25T09:05:57.144Z,8.05
2018-12-25T09:08:25.138Z,7.83
2018-12-25T09:10:53.174Z,8.25
2018-12-25T09:13:21.455Z,8.80
2018-12-25T09:15:49.876Z,7.15
2018-12-25T09:18:17.910Z,6.60
2018-12-25T09:20:45.839Z,9.60
2018-12-25T09:23:13.806Z,7.50
2018-12-25T09:25:41.952Z,8.53
2018-12-25T09:28:10.871Z,7.03
2018-12-25T09:30:39.017Z,7.33
2018-12-25T09:33:07.023Z,8.95
2018-12-25T09:35:35.072Z,7.10
2018-12-25T09:38:03.340Z,7.22
2018-12-25T09:40:31.638Z,6.62
2018-12-25T09:42:59.978Z,8.10
2018-12-25T09:45:28.224Z,8.05
2018-12-25T09:47:57.381Z,6.33
2018-12-25T09:50:25.571Z,7.65
2018-12-25T09:52:53.923Z,7.78
2018-12-25T09:55:22.092Z,7.83
2018-12-25T09:57:50.108Z,7.87
2018-12-25T10:00:18.352Z,8.78
2018-12-25T10:02:46.470Z,6.60
2018-12-25T10:05:14.567Z,7.33
2018-12-25T10:07:42.539Z,6.75
2018-12-25T10:10:10.524Z,7.33
2018-12-25T10:12:38.830Z,8.68
2018-12-25T10:15:07.368Z,8.65
2018-12-25T10:17:35.396Z,7.67
2018-12-25T10:20:04.589Z,7.80
2018-12-25T10:22:32.883Z,9.35
2018-12-25T10:25:01.020Z,7.47
2018-12-25T10:27:29.262Z,7.05
2018-12-25T10:29:57.593Z,6.55
2018-12-25T10:32:25.504Z,7.55
2018-12-25T10:34:53.719Z,9.48
2018-12-25T10:37:21.939Z,9.45
2018-12-25T10:39:50.256Z,7.42
2018-12-25T10:42:19.177Z,8.35
2018-12-25T10:44:47.203Z,7.33
2018-12-25T10:47:15.539Z,10.00
2018-12-25T10:49:43.818Z,8.48
2018-12-25T10:52:12.072Z,9.23
2018-12-25T10:54:40.407Z,8.25
2018-12-25T10:57:08.338Z,9.30
2018-12-25T10:59:36.615Z,7.55
2018-12-25T11:02:04.877Z,9.75
2018-12-25T11:04:33.304Z,8.60
2018-12-25T11:07:01.227Z,8.63
2018-12-25T11:09:29.556Z,7.85
2018-12-25T11:11:57.962Z,7.92
2018-12-25T11:14:27.072Z,8.78
2018-12-25T11:16:55.316Z,8.50
2018-12-25T11:19:23.290Z,7.33
2018-12-25T11:21:51.387Z,6.58
2018-12-25T11:24:19.916Z,8.15
2018-12-25T11:26:47.886Z,8.75
2018-12-25T11:29:15.882Z,9.20
2018-12-25T11:31:44.107Z,8.63
2018-12-25T11:34:12.303Z,8.60
2018-12-25T11:36:40.232Z,7.83
2018-12-25T11:39:08.475Z,7.28
2018-12-25T11:41:36.527Z,7.42
2018-12-25T11:44:04.635Z,8.15
2018-12-25T11:46:32.966Z,8.63
2018-12-25T11:49:01.306Z,7.87
2018-12-25T11:51:29.411Z,7.75
2018-12-25T11:53:57.803Z,7.45
2018-12-25T11:56:26.103Z,8.38
2018-12-25T11:58:54.317Z,7.83
2018-12-25T12:01:23.311Z,8.68
2018-12-25T12:03:51.301Z,8.55
2018-12-25T12:06:19.583Z,7.37
2018-12-25T12:08:47.871Z,7.83
2018-12-25T12:11:16.199Z,8.05
2018-12-25T12:13:44.312Z,7.85
2018-12-25T12:16:12.181Z,7.30
2018-12-25T12:18:40.593Z,7.70
2018-12-25T12:21:09.009Z,8.53
2018-12-25T12:23:37.079Z,7.87
2018-12-25T12:26:05.288Z,8.85
2018-12-25T12:28:33.286Z,9.58
2018-12-25T12:31:02.236Z,8.85
2018-12-25T12:33:30.654Z,8.88
2018-12-25T12:35:59.272Z,8.85
2018-12-25T12:38:27.571Z,8.53
2018-12-25T12:40:55.728Z,8.95
2018-12-25T12:43:24.875Z,8.25
2018-12-25T12:45:53.132Z,8.40
2018-12-25T12:48:21.400Z,7.15
2018-12-25T12:50:49.715Z,8.43
2018-12-25T12:53:18.362Z,7.47
2018-12-25T12:55:46.754Z,7.85
2018-12-25T12:58:14.901Z,9.30
2018-12-25T13:00:42.932Z,10.35
2018-12-25T13:03:11.179Z,10.18
2018-12-25T13:05:42.423Z,8.38
2018-12-25T13:08:10.603Z,7.17
2018-12-25T13:10:38.727Z,8.03
2018-12-25T13:13:06.695Z,7.33
2018-12-25T13:15:35.700Z,9.05
2018-12-25T13:18:04.116Z,8.88
2018-12-25T13:20:32.223Z,8.80
2018-12-25T13:23:01.388Z,9.50
2018-12-25T13:25:29.731Z,9.33
2018-12-25T13:27:57.724Z,7.22
2018-12-25T13:30:25.870Z,8.85
2018-12-25T13:32:54.919Z,8.28
2018-12-25T13:35:23.165Z,8.85
2018-12-25T13:37:51.896Z,8.03
2018-12-25T13:40:19.904Z,8.03
2018-12-25T13:43:04.845Z,7.90
2018-12-25T13:45:33.018Z,9.85
2018-12-25T13:48:00.961Z,10.18
2018-12-25T13:50:29.174Z,7.10
2018-12-25T13:53:02.823Z,7.50
2018-12-25T13:55:28.660Z,9.43
2018-12-25T13:57:56.651Z,9.73
2018-12-25T14:00:24.767Z,8.10
2018-12-25T14:02:53.039Z,9.50
2018-12-25T14:05:21.320Z,11.90
2018-12-25T14:07:49.947Z,10.93
2018-12-25T14:10:18.313Z,9.93
2018-12-25T14:12:46.507Z,10.68
2018-12-25T14:15:14.408Z,10.63
2018-12-25T14:17:42.840Z,7.10
2018-12-25T14:20:10.837Z,7.62
2018-12-25T14:22:38.797Z,9.38
2018-12-25T14:25:06.831Z,9.33
2018-12-25T14:27:35.493Z,9.48
2018-12-25T14:30:03.817Z,9.10
2018-12-25T14:32:32.060Z,8.80
2018-12-25T14:36:02.931Z,7.20
2018-12-25T14:38:31.248Z,9.00
2018-12-25T14:40:59.504Z,8.80
2018-12-25T14:43:27.903Z,11.40
2018-12-25T14:45:56.839Z,8.03
2018-12-25T14:48:25.163Z,7.55
2018-12-25T14:50:53.432Z,7.20
2018-12-25T14:53:21.709Z,8.48
2018-12-25T14:55:50.863Z,7.70
2018-12-25T14:58:19.159Z,7.08
2018-12-25T15:00:47.260Z,7.17
2018-12-25T15:03:15.612Z,8.90
2018-12-25T15:05:45.177Z,8.60
2018-12-25T15:08:13.100Z,7.60
2018-12-25T15:10:41.360Z,6.65
2018-12-25T15:13:09.520Z,10.13
2018-12-25T15:15:37.709Z,5.75
2018-12-25T15:18:05.704Z,6.58
2018-12-25T15:20:33.987Z,6.97
2018-12-25T15:23:02.192Z,7.15
2018-12-25T15:25:30.547Z,7.55
2018-12-25T15:31:34.173Z,8.70
2018-12-25T15:34:01.778Z,7.83
2018-12-25T15:36:30.211Z,9.23
2018-12-25T15:38:58.202Z,9.25
2018-12-25T15:41:26.068Z,8.05
2018-12-25T15:43:53.947Z,7.72
2018-12-25T15:46:22.152Z,7.65
2018-12-25T15:48:50.711Z,6.85
2018-12-25T15:51:19.391Z,7.90
2018-12-25T15:53:47.570Z,7.53
2018-12-25T15:56:16.155Z,8.35
2018-12-25T15:58:43.953Z,8.55
2018-12-25T16:01:11.860Z,8.20
2018-12-25T16:03:39.727Z,9.88
2018-12-25T16:06:07.543Z,7.80
2018-12-25T16:08:35.141Z,8.73
2018-12-25T16:11:02.791Z,9.00
2018-12-25T16:13:30.762Z,7.25
2018-12-25T16:15:59.472Z,8.95
2018-12-25T16:18:27.255Z,9.85
2018-12-25T16:20:56.452Z,8.20
2018-12-25T16:23:25.899Z,8.23
2018-12-25T16:25:53.788Z,7.83
2018-12-25T16:28:21.569Z,7.62
2018-12-25T16:30:49.957Z,8.33
2018-12-25T16:33:18.138Z,9.30
2018-12-25T16:35:46.011Z,9.45
2018-12-25T16:38:13.875Z,9.70
2018-12-25T16:40:44.635Z,9.00
2018-12-25T16:43:12.420Z,9.08
2018-12-25T16:45:40.109Z,9.43
2018-12-25T16:48:07.774Z,10.72
2018-12-25T16:50:35.707Z,9.30
2018-12-25T16:53:03.558Z,9.35
2018-12-25T16:55:31.445Z,9.00
2018-12-25T16:57:59.346Z,10.45
2018-12-25T17:00:27.163Z,10.90
2018-12-25T17:02:55.030Z,11.55
2018-12-25T17:05:24.045Z,10.95
2018-12-25T17:07:52.871Z,12.30
2018-12-25T17:10:21.069Z,8.53
2018-12-25T17:12:49.015Z,12.23
2018-12-25T17:15:16.842Z,10.70
2018-12-25T17:17:44.464Z,11.85
2018-12-25T17:20:12.095Z,11.85
2018-12-25T17:22:40.034Z,10.65
2018-12-25T17:25:07.803Z,10.13
2018-12-25T17:27:35.765Z,8.25
2018-12-25T17:30:03.983Z,14.78
2018-12-25T17:32:31.963Z,11.50
2018-12-25T17:34:59.830Z,9.75
2018-12-25T17:37:29.494Z,12.10
2018-12-25T17:39:57.022Z,13.48
2018-12-25T17:42:24.892Z,8.70
2018-12-25T17:44:52.682Z,11.45
2018-12-25T17:47:21.543Z,10.95
2018-12-25T17:49:49.978Z,10.35
2018-12-25T17:52:17.627Z,11.33
2018-12-25T17:54:45.601Z,11.60
2018-12-25T17:57:14.189Z,12.43
2018-12-25T17:59:42.471Z,11.25
2018-12-25T18:02:11.785Z,10.53
2018-12-25T18:04:39.496Z,10.58
2018-12-25T18:07:07.308Z,12.70
2018-12-25T18:09:35.292Z,10.23
2018-12-25T18:12:05.359Z,11.28
2018-12-25T18:14:32.964Z,11.75
2018-12-25T18:17:00.642Z,10.60
2018-12-25T18:19:28.815Z,11.60
2018-12-25T18:21:56.561Z,11.30
2018-12-25T18:24:25.379Z,10.95
2018-12-25T18:26:53.578Z,10.53
2018-12-25T18:29:21.846Z,10.48
2018-12-25T18:31:50.101Z,11.78
2018-12-25T18:34:17.962Z,10.15
2018-12-25T18:36:45.832Z,10.40
2018-12-25T18:39:13.899Z,9.33
2018-12-25T18:41:41.650Z,9.18
2018-12-25T18:44:09.436Z,6.85
2018-12-25T18:46:37.321Z,8.38
2018-12-25T18:49:04.989Z,9.40
2018-12-25T18:51:33.903Z,9.05
2018-12-25T18:54:01.763Z,10.28
2018-12-25T18:56:29.541Z,8.60
2018-12-25T18:58:57.951Z,10.30
2018-12-25T19:01:27.008Z,9.45
2018-12-25T19:03:56.856Z,7.78
2018-12-25T19:06:25.998Z,9.55
2018-12-25T19:08:53.886Z,9.38
2018-12-25T19:11:22.602Z,8.15
2018-12-25T19:13:50.485Z,8.68
2018-12-25T19:16:18.543Z,9.45
2018-12-25T19:18:46.960Z,8.50
2018-12-25T19:21:14.830Z,8.68
2018-12-25T19:23:53.922Z,9.53
2018-12-25T19:26:22.042Z,8.58
2018-12-25T19:28:49.842Z,8.23
2018-12-25T19:31:17.549Z,8.73
2018-12-25T19:33:45.320Z,8.20
2018-12-25T19:36:13.031Z,9.55
2018-12-25T19:38:40.975Z,9.03
2018-12-25T19:41:09.186Z,9.48
2018-12-25T19:43:37.020Z,8.28
2018-12-25T19:46:04.952Z,8.23
2018-12-25T19:48:32.738Z,9.43
2018-12-25T19:51:01.094Z,7.78
2018-12-25T19:53:31.673Z,8.03
2018-12-25T19:55:59.743Z,8.88
2018-12-25T19:58:27.556Z,7.58
2018-12-25T20:00:55.367Z,8.58
2018-12-25T20:03:38.407Z,10.15
2018-12-25T20:07:06.232Z,9.53
2018-12-25T20:10:07.423Z,9.33
2018-12-25T20:13:19.985Z,8.35
2018-12-25T20:16:38.571Z,7.95
2018-12-25T20:20:09.156Z,7.50
2018-12-25T20:23:16.082Z,7.60
2018-12-25T20:26:30.469Z,7.67
2018-12-25T20:29:50.457Z,7.40
2018-12-25T20:32:56.076Z,7.12
2018-12-25T20:36:07.179Z,8.13
2018-12-25T20:39:04.043Z,8.00
2018-12-25T20:42:24.700Z,8.28
2018-12-25T20:45:48.490Z,6.42
2018-12-25T20:48:49.617Z,9.78
2018-12-25T20:51:50.577Z,7.70
2018-12-25T20:55:01.850Z,9.20
2018-12-25T20:58:23.455Z,9.48
2018-12-25T21:01:20.018Z,8.70
2018-12-25T21:04:53.959Z,8.73
2018-12-25T21:07:58.934Z,8.23
2018-12-25T21:11:29.743Z,9.75
2018-12-25T21:14:26.479Z,7.90
2018-12-25T21:17:27.287Z,8.78
2018-12-25T21:20:27.006Z,8.48
2018-12-25T21:23:31.583Z,9.18
2018-12-25T21:26:37.132Z,9.05
2018-12-25T21:29:06.056Z,9.55
2018-12-25T21:31:34.576Z,9.60
2018-12-25T21:34:03.205Z,9.45
2018-12-25T21:36:31.258Z,9.70
2018-12-25T21:38:58.805Z,9.80
2018-12-25T21:41:26.667Z,10.08
2018-12-25T21:43:56.404Z,11.43
2018-12-25T21:46:24.281Z,10.18
2018-12-25T21:48:53.475Z,9.85
2018-12-25T21:51:22.365Z,9.85
2018-12-25T21:53:50.132Z,9.88
2018-12-25T21:56:19.320Z,9.50
2018-12-25T21:58:47.764Z,9.40
2018-12-25T22:01:15.541Z,8.88
2018-12-25T22:03:43.768Z,9.98
2018-12-25T22:06:11.357Z,9.88
2018-12-25T22:08:41.869Z,8.93
2018-12-25T22:11:11.942Z,8.38
2018-12-25T22:13:43.824Z,9.45
2018-12-25T22:16:12.004Z,8.30
2018-12-25T22:18:39.994Z,8.53
2018-12-25T22:21:07.908Z,9.38
2018-12-25T22:23:35.747Z,10.72
2018-12-25T22:26:03.711Z,9.20
2018-12-25T22:28:35.092Z,10.58
2018-12-25T22:31:03.101Z,9.05
2018-12-25T22:33:31.761Z,9.45
2018-12-25T22:35:59.998Z,10.80
2018-12-25T22:38:29.003Z,10.03
2018-12-25T22:40:57.766Z,10.53
2018-12-25T22:43:25.664Z,8.73
2018-12-25T22:45:53.558Z,9.43
2018-12-25T22:48:21.289Z,9.08
2018-12-25T22:50:49.435Z,8.85
2018-12-25T22:53:17.554Z,9.23
2018-12-25T22:55:46.177Z,10.23
2018-12-25T22:58:14.003Z,9.18
2018-12-25T23:00:46.342Z,9.70
2018-12-25T23:03:21.562Z,10.35
2018-12-25T23:05:49.565Z,9.43
2018-12-25T23:08:19.142Z,12.05
2018-12-25T23:10:47.084Z,9.65
2018-12-25T23:13:16.163Z,8.93
2018-12-25T23:15:44.075Z,8.75
2018-12-25T23:18:14.262Z,8.78
2018-12-25T23:20:42.214Z,10.18
2018-12-25T23:23:10.419Z,9.53
2018-12-25T23:25:44.593Z,8.95
2018-12-25T23:28:10.134Z,8.85
2018-12-25T23:30:38.282Z,11.20
2018-12-25T23:33:06.666Z,8.45
2018-12-25T23:35:35.576Z,8.73
2018-12-25T23:38:03.337Z,9.78
2018-12-25T23:40:31.280Z,7.83
2018-12-25T23:42:59.495Z,9.30
2018-12-25T23:45:27.403Z,9.43
2018-12-25T23:47:55.044Z,8.70
2018-12-25T23:50:23.119Z,8.60
2018-12-25T23:52:52.220Z,8.40
2018-12-25T23:55:21.461Z,8.23
2018-12-25T23:57:51.040Z,9.93
